MSR778 EGLL-HECA
Flight info
| Callsign | MSR778 |
|---|---|
| Flight time | N/A |
| Altitude | 41000 |
| Route | DET L6 DVR UL9 KONAN DCT KOK DCT SISGA DCT KOMOB M150 PITES DCT EDISA DCT PICWI DCT UTABA DCT BEMKI DCT ELMEM DCT DIRAB DCT PEVAL DCT PUL DCT AMUGO DCT VAKSU DCT KOFER DCT UNDER DCT PINDO DCT PIKOS DCT KEA UN132 KUMBI L612 BLT A16 CVO |
| Aircraft | A359/H-SDE2E3GHIJ3J4J5LM1ORWXY/LB1D1 |
Departure
| Time | 2026-04-30 11:49 |
|---|---|
| Airport | London Heathrow Airport (EGLL) |
Arrival
| Time | N/A |
|---|---|
| Airport | Cairo International Airport (HECA) |
| Time | Latitude | Longitude | Altitude | Speed | Heading |
|---|---|---|---|---|---|
| 2026-04-30 10:43 | 51.47099 | -0.44198 | 96 ft | 0 kts | 270° |
| 2026-04-30 10:51 | 51.47099 | -0.44197 | 96 ft | 0 kts | 270° |
| 2026-04-30 11:03 | 51.47099 | -0.44196 | 92 ft | 0 kts | 270° |
| 2026-04-30 11:17 | 51.47099 | -0.44195 | 92 ft | 0 kts | 270° |
| 2026-04-30 11:33 | 51.47099 | -0.44194 | 92 ft | 0 kts | 270° |
| 2026-04-30 11:35 | 51.47099 | -0.44191 | 92 ft | 2 kts | 270° |
| 2026-04-30 11:35 | 51.47099 | -0.44149 | 92 ft | 4 kts | 270° |
| 2026-04-30 11:35 | 51.47099 | -0.44110 | 92 ft | 2 kts | 270° |
| 2026-04-30 11:35 | 51.47102 | -0.44075 | 93 ft | 4 kts | 229° |
| 2026-04-30 11:36 | 51.47123 | -0.44057 | 92 ft | 3 kts | 180° |
| 2026-04-30 11:36 | 51.47149 | -0.44057 | 92 ft | 4 kts | 180° |
| 2026-04-30 11:36 | 51.47157 | -0.44057 | 92 ft | 0 kts | 180° |
| 2026-04-30 11:40 | 51.47155 | -0.44057 | 92 ft | 2 kts | 180° |
| 2026-04-30 11:40 | 51.47105 | -0.44057 | 92 ft | 12 kts | 180° |
| 2026-04-30 11:40 | 51.46991 | -0.44056 | 96 ft | 21 kts | 179° |
| 2026-04-30 11:40 | 51.46852 | -0.44055 | 96 ft | 19 kts | 179° |
| 2026-04-30 11:41 | 51.46722 | -0.44054 | 96 ft | 19 kts | 180° |
| 2026-04-30 11:41 | 51.46665 | -0.44194 | 94 ft | 17 kts | 272° |
| 2026-04-30 11:41 | 51.46665 | -0.44402 | 92 ft | 20 kts | 270° |
| 2026-04-30 11:41 | 51.46665 | -0.44642 | 94 ft | 23 kts | 269° |
| 2026-04-30 11:42 | 51.46663 | -0.44912 | 93 ft | 25 kts | 270° |
| 2026-04-30 11:42 | 51.46663 | -0.45210 | 96 ft | 28 kts | 269° |
| 2026-04-30 11:42 | 51.46661 | -0.45536 | 92 ft | 30 kts | 269° |
| 2026-04-30 11:42 | 51.46660 | -0.45886 | 92 ft | 32 kts | 269° |
| 2026-04-30 11:43 | 51.46660 | -0.46252 | 96 ft | 34 kts | 270° |
| 2026-04-30 11:43 | 51.46658 | -0.46639 | 97 ft | 34 kts | 270° |
| 2026-04-30 11:43 | 51.46657 | -0.47011 | 96 ft | 34 kts | 270° |
| 2026-04-30 11:43 | 51.46656 | -0.47394 | 95 ft | 35 kts | 269° |
| 2026-04-30 11:44 | 51.46655 | -0.47737 | 95 ft | 29 kts | 270° |
| 2026-04-30 11:44 | 51.46654 | -0.48036 | 92 ft | 25 kts | 270° |
| 2026-04-30 11:44 | 51.46653 | -0.48333 | 95 ft | 28 kts | 270° |
| 2026-04-30 11:44 | 51.46653 | -0.48573 | 94 ft | 9 kts | 269° |
| 2026-04-30 11:45 | 51.46652 | -0.48617 | 92 ft | 0 kts | 269° |
| 2026-04-30 11:45 | 51.46652 | -0.48618 | 92 ft | 0 kts | 269° |
| 2026-04-30 11:45 | 51.46650 | -0.48677 | 96 ft | 12 kts | 263° |
| 2026-04-30 11:46 | 51.46608 | -0.48760 | 96 ft | 0 kts | 204° |
| 2026-04-30 11:46 | 51.46605 | -0.48761 | 96 ft | 2 kts | 204° |
| 2026-04-30 11:47 | 51.46557 | -0.48785 | 96 ft | 11 kts | 186° |
| 2026-04-30 11:47 | 51.46483 | -0.48713 | 96 ft | 15 kts | 111° |
| 2026-04-30 11:47 | 51.46479 | -0.48579 | 92 ft | 0 kts | 90° |
| 2026-04-30 11:48 | 51.46478 | -0.48517 | 93 ft | 23 kts | 90° |
| 2026-04-30 11:48 | 51.46481 | -0.47844 | 93 ft | 95 kts | 90° |
| 2026-04-30 11:49 | 51.46486 | -0.46463 | 131 ft | 150 kts | 89° |
| 2026-04-30 11:49 | 51.46511 | -0.44810 | 915 ft | 148 kts | 92° |
| 2026-04-30 11:49 | 51.46512 | -0.43120 | 1620 ft | 161 kts | 92° |
| 2026-04-30 11:49 | 51.46306 | -0.41254 | 2129 ft | 181 kts | 111° |
| 2026-04-30 11:50 | 51.45633 | -0.39443 | 2615 ft | 204 kts | 123° |
| 2026-04-30 11:50 | 51.44847 | -0.37394 | 3116 ft | 223 kts | 116° |
| 2026-04-30 11:50 | 51.44240 | -0.35071 | 3954 ft | 228 kts | 111° |
| 2026-04-30 11:50 | 51.43703 | -0.32653 | 4839 ft | 231 kts | 112° |
| 2026-04-30 11:51 | 51.43165 | -0.30198 | 5634 ft | 237 kts | 112° |
| 2026-04-30 11:51 | 51.42673 | -0.27602 | 6361 ft | 248 kts | 107° |
| 2026-04-30 11:51 | 51.42285 | -0.24875 | 7171 ft | 254 kts | 105° |
| 2026-04-30 11:51 | 51.41908 | -0.22083 | 8056 ft | 258 kts | 105° |
| 2026-04-30 11:52 | 51.41529 | -0.19284 | 8992 ft | 261 kts | 105° |
| 2026-04-30 11:52 | 51.41141 | -0.16428 | 9957 ft | 264 kts | 105° |
| 2026-04-30 11:52 | 51.40745 | -0.13516 | 10735 ft | 274 kts | 104° |
| 2026-04-30 11:52 | 51.40321 | -0.10420 | 11158 ft | 295 kts | 104° |
| 2026-04-30 11:53 | 51.39857 | -0.07099 | 11560 ft | 314 kts | 104° |
| 2026-04-30 11:53 | 51.39373 | -0.03619 | 12227 ft | 324 kts | 104° |
| 2026-04-30 11:53 | 51.38878 | -0.00055 | 12989 ft | 331 kts | 104° |
| 2026-04-30 11:53 | 51.38379 | 0.03534 | 13744 ft | 337 kts | 104° |
| 2026-04-30 11:54 | 51.37863 | 0.07236 | 14490 ft | 342 kts | 104° |
| 2026-04-30 11:54 | 51.37344 | 0.10974 | 15225 ft | 346 kts | 104° |
| 2026-04-30 11:54 | 51.36815 | 0.14750 | 15978 ft | 350 kts | 105° |
| 2026-04-30 11:54 | 51.36274 | 0.18590 | 16718 ft | 354 kts | 105° |
| 2026-04-30 11:55 | 51.35731 | 0.22463 | 17458 ft | 358 kts | 105° |
| 2026-04-30 11:55 | 51.35177 | 0.26371 | 18203 ft | 362 kts | 105° |
| 2026-04-30 11:55 | 51.34623 | 0.30268 | 18886 ft | 366 kts | 105° |
| 2026-04-30 11:55 | 51.34055 | 0.34258 | 19562 ft | 369 kts | 105° |
| 2026-04-30 11:56 | 51.33481 | 0.38280 | 20325 ft | 371 kts | 105° |
| 2026-04-30 11:56 | 51.32902 | 0.42327 | 21102 ft | 373 kts | 105° |
| 2026-04-30 11:56 | 51.32319 | 0.46399 | 21922 ft | 375 kts | 105° |
| 2026-04-30 11:56 | 51.31744 | 0.50434 | 22625 ft | 378 kts | 104° |
| 2026-04-30 11:57 | 51.31151 | 0.54546 | 23294 ft | 382 kts | 105° |
| 2026-04-30 11:57 | 51.30542 | 0.58750 | 23984 ft | 385 kts | 105° |
| 2026-04-30 11:57 | 51.29929 | 0.62874 | 24564 ft | 387 kts | 106° |
| 2026-04-30 11:57 | 51.29208 | 0.67050 | 25158 ft | 390 kts | 108° |
| 2026-04-30 11:58 | 51.28425 | 0.71204 | 25716 ft | 393 kts | 109° |
| 2026-04-30 11:58 | 51.27615 | 0.75399 | 26286 ft | 396 kts | 109° |
| 2026-04-30 11:58 | 51.26802 | 0.79620 | 26870 ft | 399 kts | 109° |
| 2026-04-30 11:58 | 51.25993 | 0.83877 | 27422 ft | 402 kts | 109° |
| 2026-04-30 11:59 | 51.25188 | 0.88169 | 27985 ft | 405 kts | 109° |
| 2026-04-30 11:59 | 51.24383 | 0.92491 | 28517 ft | 408 kts | 109° |
| 2026-04-30 11:59 | 51.23583 | 0.96806 | 29006 ft | 411 kts | 108° |
| 2026-04-30 11:59 | 51.22764 | 1.01224 | 29408 ft | 417 kts | 108° |
| 2026-04-30 12:00 | 51.21936 | 1.05680 | 29903 ft | 420 kts | 108° |
| 2026-04-30 12:00 | 51.21102 | 1.10162 | 30429 ft | 422 kts | 108° |
| 2026-04-30 12:00 | 51.20262 | 1.14664 | 30847 ft | 425 kts | 108° |
| 2026-04-30 12:00 | 51.19412 | 1.19201 | 31253 ft | 427 kts | 108° |
| 2026-04-30 12:01 | 51.18566 | 1.23708 | 31648 ft | 430 kts | 108° |
| 2026-04-30 12:01 | 51.17700 | 1.28303 | 32031 ft | 433 kts | 108° |
| 2026-04-30 12:01 | 51.16851 | 1.32929 | 32410 ft | 436 kts | 106° |
| 2026-04-30 12:01 | 51.16276 | 1.37697 | 32780 ft | 440 kts | 99° |
| 2026-04-30 12:02 | 51.15941 | 1.42557 | 33143 ft | 443 kts | 98° |
| 2026-04-30 12:02 | 51.15754 | 1.45819 | 33349 ft | 446 kts | 97° |
| 2026-04-30 12:02 | 51.15505 | 1.50764 | 33641 ft | 449 kts | 96° |
| 2026-04-30 12:02 | 51.15273 | 1.55753 | 33977 ft | 451 kts | 96° |
| 2026-04-30 12:03 | 51.15044 | 1.60764 | 34292 ft | 453 kts | 96° |
| 2026-04-30 12:03 | 51.14569 | 1.70827 | 34819 ft | 457 kts | 96° |
| 2026-04-30 12:03 | 51.14323 | 1.75826 | 35136 ft | 457 kts | 96° |
| 2026-04-30 12:04 | 51.14070 | 1.80874 | 35435 ft | 458 kts | 96° |
| 2026-04-30 12:04 | 51.13813 | 1.85934 | 35729 ft | 458 kts | 96° |
| 2026-04-30 12:04 | 51.13552 | 1.90996 | 35992 ft | 459 kts | 96° |
| 2026-04-30 12:04 | 51.13287 | 1.96089 | 36290 ft | 459 kts | 96° |
| 2026-04-30 12:05 | 51.13021 | 2.01160 | 36564 ft | 460 kts | 96° |
| 2026-04-30 12:05 | 51.12755 | 2.06255 | 36825 ft | 461 kts | 96° |
| 2026-04-30 12:05 | 51.12484 | 2.11352 | 37097 ft | 462 kts | 96° |
| 2026-04-30 12:05 | 51.12212 | 2.16393 | 37360 ft | 462 kts | 96° |
| 2026-04-30 12:06 | 51.11934 | 2.21503 | 37624 ft | 463 kts | 96° |
| 2026-04-30 12:06 | 51.11655 | 2.26604 | 37879 ft | 463 kts | 96° |
| 2026-04-30 12:06 | 51.11373 | 2.31717 | 38158 ft | 463 kts | 96° |
| 2026-04-30 12:06 | 51.11089 | 2.36829 | 38428 ft | 463 kts | 96° |
| 2026-04-30 12:07 | 51.10804 | 2.41932 | 38751 ft | 462 kts | 96° |
| 2026-04-30 12:07 | 51.10518 | 2.47008 | 39084 ft | 460 kts | 96° |
| 2026-04-30 12:07 | 51.10231 | 2.52074 | 39242 ft | 461 kts | 96° |
| 2026-04-30 12:07 | 51.09938 | 2.57154 | 39400 ft | 461 kts | 96° |
| 2026-04-30 12:08 | 51.09446 | 2.62194 | 39580 ft | 460 kts | 103° |
| 2026-04-30 12:08 | 51.08562 | 2.67094 | 39686 ft | 461 kts | 111° |
| 2026-04-30 12:08 | 51.07283 | 2.71768 | 39862 ft | 460 kts | 116° |
| 2026-04-30 12:08 | 51.05857 | 2.76330 | 40087 ft | 459 kts | 117° |
| 2026-04-30 12:09 | 51.04396 | 2.80775 | 40188 ft | 460 kts | 118° |
| 2026-04-30 12:09 | 51.01363 | 2.89761 | 40538 ft | 459 kts | 118° |
| 2026-04-30 12:09 | 50.99852 | 2.94231 | 40848 ft | 456 kts | 118° |
| 2026-04-30 12:10 | 50.98349 | 2.98686 | 40942 ft | 458 kts | 118° |
| 2026-04-30 12:10 | 50.95323 | 3.07691 | 41071 ft | 462 kts | 118° |
| 2026-04-30 12:10 | 50.93815 | 3.12180 | 41231 ft | 462 kts | 118° |
| 2026-04-30 12:11 | 50.92321 | 3.16623 | 41267 ft | 463 kts | 118° |
| 2026-04-30 12:11 | 50.89271 | 3.25669 | 41266 ft | 466 kts | 118° |
| 2026-04-30 12:12 | 50.86217 | 3.34693 | 41269 ft | 464 kts | 117° |
| 2026-04-30 12:12 | 50.83159 | 3.43685 | 41270 ft | 464 kts | 118° |
| 2026-04-30 12:13 | 50.80090 | 3.52699 | 41276 ft | 465 kts | 118° |
| 2026-04-30 12:13 | 50.77025 | 3.61657 | 41276 ft | 464 kts | 118° |
| 2026-04-30 12:14 | 50.73935 | 3.70651 | 41279 ft | 465 kts | 118° |
| 2026-04-30 12:14 | 50.70864 | 3.79560 | 41277 ft | 464 kts | 118° |
| 2026-04-30 12:15 | 50.67760 | 3.88527 | 41279 ft | 466 kts | 118° |
| 2026-04-30 12:15 | 50.64652 | 3.97496 | 41278 ft | 464 kts | 118° |
| 2026-04-30 12:16 | 50.61540 | 4.06434 | 41282 ft | 466 kts | 118° |
| 2026-04-30 12:16 | 50.58412 | 4.15360 | 41283 ft | 464 kts | 118° |
| 2026-04-30 12:17 | 50.53707 | 4.28645 | 41292 ft | 465 kts | 118° |
| 2026-04-30 12:17 | 50.50555 | 4.37520 | 41288 ft | 463 kts | 118° |
| 2026-04-30 12:18 | 50.47407 | 4.46382 | 41295 ft | 466 kts | 118° |
| 2026-04-30 12:18 | 50.44237 | 4.55263 | 41292 ft | 465 kts | 118° |
| 2026-04-30 12:19 | 50.41071 | 4.64097 | 41287 ft | 465 kts | 118° |
| 2026-04-30 12:19 | 50.37886 | 4.72958 | 41275 ft | 467 kts | 118° |
| 2026-04-30 12:20 | 50.34687 | 4.81816 | 41279 ft | 466 kts | 118° |
| 2026-04-30 12:20 | 50.31497 | 4.90621 | 41272 ft | 467 kts | 118° |
| 2026-04-30 12:21 | 50.28285 | 4.99457 | 41277 ft | 466 kts | 118° |
| 2026-04-30 12:21 | 50.25061 | 5.08302 | 41284 ft | 469 kts | 118° |
| 2026-04-30 12:22 | 50.21845 | 5.17105 | 41283 ft | 468 kts | 118° |
| 2026-04-30 12:22 | 50.18600 | 5.25935 | 41279 ft | 469 kts | 119° |
| 2026-04-30 12:23 | 50.15342 | 5.34774 | 41287 ft | 469 kts | 118° |
| 2026-04-30 12:23 | 50.12092 | 5.43587 | 41285 ft | 468 kts | 118° |
| 2026-04-30 12:24 | 50.08855 | 5.52340 | 41290 ft | 469 kts | 118° |
| 2026-04-30 12:24 | 50.05580 | 5.61162 | 41286 ft | 469 kts | 118° |
| 2026-04-30 12:25 | 50.02299 | 5.69980 | 41299 ft | 471 kts | 118° |
| 2026-04-30 12:25 | 49.99032 | 5.78737 | 41276 ft | 470 kts | 118° |
| 2026-04-30 12:26 | 49.96290 | 5.86058 | 41300 ft | 471 kts | 119° |
| 2026-04-30 12:26 | 49.92960 | 5.94902 | 41309 ft | 471 kts | 118° |
| 2026-04-30 12:27 | 49.89646 | 6.03683 | 41289 ft | 472 kts | 118° |
| 2026-04-30 12:27 | 49.86310 | 6.12501 | 41292 ft | 474 kts | 118° |
| 2026-04-30 12:28 | 49.83122 | 6.21408 | 41307 ft | 471 kts | 115° |
| 2026-04-30 12:28 | 49.80119 | 6.30461 | 41307 ft | 473 kts | 115° |
| 2026-04-30 12:29 | 49.77095 | 6.39519 | 41291 ft | 473 kts | 115° |
| 2026-04-30 12:29 | 49.74048 | 6.48481 | 41296 ft | 474 kts | 116° |
| 2026-04-30 12:30 | 49.70881 | 6.57413 | 41288 ft | 474 kts | 119° |
| 2026-04-30 12:30 | 49.67363 | 6.66058 | 41288 ft | 475 kts | 121° |
| 2026-04-30 12:31 | 49.63790 | 6.74660 | 41286 ft | 475 kts | 120° |
| 2026-04-30 12:31 | 49.60269 | 6.83279 | 41286 ft | 474 kts | 120° |
| 2026-04-30 12:32 | 49.56777 | 6.91896 | 41291 ft | 474 kts | 120° |
| 2026-04-30 12:32 | 49.53285 | 7.00519 | 41306 ft | 473 kts | 119° |
| 2026-04-30 12:33 | 49.49806 | 7.09074 | 41309 ft | 475 kts | 120° |
| 2026-04-30 12:33 | 49.46283 | 7.17699 | 41314 ft | 475 kts | 120° |
| 2026-04-30 12:34 | 49.42750 | 7.26320 | 41305 ft | 478 kts | 120° |
| 2026-04-30 12:34 | 49.39211 | 7.34930 | 41315 ft | 480 kts | 120° |
| 2026-04-30 12:35 | 49.35638 | 7.43589 | 41307 ft | 480 kts | 120° |
| 2026-04-30 12:35 | 49.32055 | 7.52245 | 41303 ft | 480 kts | 120° |
| 2026-04-30 12:36 | 49.28465 | 7.60893 | 41310 ft | 480 kts | 119° |
| 2026-04-30 12:36 | 49.24891 | 7.69474 | 41305 ft | 482 kts | 120° |
| 2026-04-30 12:37 | 49.21268 | 7.78145 | 41313 ft | 483 kts | 119° |
| 2026-04-30 12:37 | 49.17639 | 7.86796 | 41314 ft | 483 kts | 120° |
| 2026-04-30 12:38 | 49.14001 | 7.95440 | 41308 ft | 483 kts | 120° |
| 2026-04-30 12:38 | 49.10362 | 8.04064 | 41306 ft | 483 kts | 120° |
| 2026-04-30 12:39 | 49.06740 | 8.12623 | 41304 ft | 483 kts | 120° |
| 2026-04-30 12:39 | 49.03085 | 8.21231 | 41297 ft | 482 kts | 120° |
| 2026-04-30 12:40 | 48.99297 | 8.29687 | 41298 ft | 485 kts | 127° |
| 2026-04-30 12:40 | 48.94600 | 8.37110 | 41295 ft | 487 kts | 131° |
| 2026-04-30 12:41 | 48.89943 | 8.44504 | 41297 ft | 487 kts | 131° |
| 2026-04-30 12:41 | 48.85251 | 8.51969 | 41291 ft | 487 kts | 131° |
| 2026-04-30 12:42 | 48.81370 | 8.58174 | 41289 ft | 487 kts | 130° |
| 2026-04-30 12:42 | 48.75914 | 8.66902 | 41289 ft | 487 kts | 131° |
| 2026-04-30 12:43 | 48.72035 | 8.73099 | 41297 ft | 488 kts | 131° |
| 2026-04-30 12:43 | 48.67370 | 8.80524 | 41288 ft | 490 kts | 130° |